sensor_id;sensor_type;location;lat;lon;timestamp;temperature;humidity
21031;DHT22;61072;47.808;7.636;2022-12-31T00:00:13;14.80;99.90
21031;DHT22;61072;47.808;7.636;2022-12-31T00:02:40;14.80;99.90
21031;DHT22;61072;47.808;7.636;2022-12-31T00:05:07;14.80;99.90
21031;DHT22;61072;47.808;7.636;2022-12-31T00:07:34;14.80;99.90
21031;DHT22;61072;47.808;7.636;2022-12-31T00:10:01;14.80;99.90
21031;DHT22;61072;47.808;7.636;2022-12-31T00:12:27;14.80;99.90
21031;DHT22;61072;47.808;7.636;2022-12-31T00:14:54;14.80;99.90
21031;DHT22;61072;47.808;7.636;2022-12-31T00:17:21;14.80;99.90
21031;DHT22;61072;47.808;7.636;2022-12-31T00:19:48;14.90;99.90
21031;DHT22;61072;47.808;7.636;2022-12-31T00:22:14;14.90;99.90
21031;DHT22;61072;47.808;7.636;2022-12-31T00:24:41;15.40;99.90
21031;DHT22;61072;47.808;7.636;2022-12-31T00:27:08;14.90;99.90
21031;DHT22;61072;47.808;7.636;2022-12-31T00:29:34;15.00;99.90
21031;DHT22;61072;47.808;7.636;2022-12-31T00:32:01;15.00;99.90
21031;DHT22;61072;47.808;7.636;2022-12-31T00:34:27;15.00;99.90
21031;DHT22;61072;47.808;7.636;2022-12-31T00:36:54;14.90;99.90
21031;DHT22;61072;47.808;7.636;2022-12-31T00:39:21;14.90;99.90
21031;DHT22;61072;47.808;7.636;2022-12-31T00:41:47;15.00;99.90
21031;DHT22;61072;47.808;7.636;2022-12-31T00:44:14;14.90;99.90
21031;DHT22;61072;47.808;7.636;2022-12-31T00:46:41;15.00;99.90
21031;DHT22;61072;47.808;7.636;2022-12-31T00:49:08;15.00;99.90
21031;DHT22;61072;47.808;7.636;2022-12-31T00:51:35;15.00;99.90
21031;DHT22;61072;47.808;7.636;2022-12-31T00:54:01;15.00;99.90
21031;DHT22;61072;47.808;7.636;2022-12-31T00:56:30;15.00;99.90
21031;DHT22;61072;47.808;7.636;2022-12-31T00:58:58;15.00;99.90
21031;DHT22;61072;47.808;7.636;2022-12-31T01:01:31;15.00;99.90
21031;DHT22;61072;47.808;7.636;2022-12-31T01:04:01;15.00;99.90
21031;DHT22;61072;47.808;7.636;2022-12-31T01:06:28;15.00;99.90
21031;DHT22;61072;47.808;7.636;2022-12-31T01:08:54;15.00;99.90
21031;DHT22;61072;47.808;7.636;2022-12-31T01:11:22;15.10;99.90
21031;DHT22;61072;47.808;7.636;2022-12-31T01:13:59;15.10;99.90
21031;DHT22;61072;47.808;7.636;2022-12-31T01:16:33;15.10;99.90
21031;DHT22;61072;47.808;7.636;2022-12-31T01:19:03;15.20;99.90
21031;DHT22;61072;47.808;7.636;2022-12-31T01:21:30;15.20;99.90
21031;DHT22;61072;47.808;7.636;2022-12-31T01:23:58;15.20;99.90
21031;DHT22;61072;47.808;7.636;2022-12-31T01:26:25;15.20;99.90
21031;DHT22;61072;47.808;7.636;2022-12-31T01:28:52;15.20;99.90
21031;DHT22;61072;47.808;7.636;2022-12-31T01:31:21;15.30;99.90
21031;DHT22;61072;47.808;7.636;2022-12-31T01:33:49;15.20;99.90
21031;DHT22;61072;47.808;7.636;2022-12-31T01:36:21;15.20;99.90
21031;DHT22;61072;47.808;7.636;2022-12-31T01:38:53;15.20;99.90
21031;DHT22;61072;47.808;7.636;2022-12-31T01:41:25;15.20;99.90
21031;DHT22;61072;47.808;7.636;2022-12-31T01:43:56;15.20;99.90
21031;DHT22;61072;47.808;7.636;2022-12-31T01:48:59;15.10;99.90
21031;DHT22;61072;47.808;7.636;2022-12-31T01:51:28;15.00;99.90
21031;DHT22;61072;47.808;7.636;2022-12-31T01:53:57;15.00;99.90
21031;DHT22;61072;47.808;7.636;2022-12-31T01:56:25;15.00;99.90
21031;DHT22;61072;47.808;7.636;2022-12-31T01:58:54;15.00;99.90
21031;DHT22;61072;47.808;7.636;2022-12-31T02:01:28;15.00;99.90
21031;DHT22;61072;47.808;7.636;2022-12-31T02:03:56;14.90;99.90
21031;DHT22;61072;47.808;7.636;2022-12-31T02:06:49;14.90;99.90
21031;DHT22;61072;47.808;7.636;2022-12-31T02:09:13;14.90;99.90
21031;DHT22;61072;47.808;7.636;2022-12-31T02:11:39;14.80;99.90
21031;DHT22;61072;47.808;7.636;2022-12-31T02:14:10;14.80;99.90
21031;DHT22;61072;47.808;7.636;2022-12-31T02:22:51;14.70;99.90
21031;DHT22;61072;47.808;7.636;2022-12-31T02:30:35;14.70;99.90
21031;DHT22;61072;47.808;7.636;2022-12-31T02:33:21;14.70;99.90
21031;DHT22;61072;47.808;7.636;2022-12-31T02:35:59;14.60;99.90
21031;DHT22;61072;47.808;7.636;2022-12-31T02:38:31;14.60;99.90
21031;DHT22;61072;47.808;7.636;2022-12-31T02:40:59;14.50;99.90
21031;DHT22;61072;47.808;7.636;2022-12-31T02:43:26;14.50;99.90
21031;DHT22;61072;47.808;7.636;2022-12-31T02:46:11;14.40;99.90
21031;DHT22;61072;47.808;7.636;2022-12-31T02:48:51;14.40;99.90
21031;DHT22;61072;47.808;7.636;2022-12-31T02:54:46;14.30;99.90
21031;DHT22;61072;47.808;7.636;2022-12-31T03:00:04;14.30;99.90
21031;DHT22;61072;47.808;7.636;2022-12-31T03:02:50;14.20;99.90
21031;DHT22;61072;47.808;7.636;2022-12-31T03:05:22;14.20;99.90
21031;DHT22;61072;47.808;7.636;2022-12-31T03:07:50;14.30;99.90
21031;DHT22;61072;47.808;7.636;2022-12-31T03:10:16;14.30;99.90
21031;DHT22;61072;47.808;7.636;2022-12-31T03:12:43;14.40;99.90
21031;DHT22;61072;47.808;7.636;2022-12-31T03:15:33;14.30;99.90
21031;DHT22;61072;47.808;7.636;2022-12-31T03:18:17;14.40;99.90
21031;DHT22;61072;47.808;7.636;2022-12-31T03:21:13;14.50;99.90
21031;DHT22;61072;47.808;7.636;2022-12-31T03:23:58;14.50;99.90
21031;DHT22;61072;47.808;7.636;2022-12-31T03:26:43;14.60;99.90
21031;DHT22;61072;47.808;7.636;2022-12-31T03:29:10;14.60;99.90
21031;DHT22;61072;47.808;7.636;2022-12-31T03:31:37;14.60;99.90
21031;DHT22;61072;47.808;7.636;2022-12-31T03:34:04;14.60;99.90
21031;DHT22;61072;47.808;7.636;2022-12-31T03:36:30;14.70;99.90
21031;DHT22;61072;47.808;7.636;2022-12-31T03:38:57;14.70;99.90
21031;DHT22;61072;47.808;7.636;2022-12-31T03:41:23;14.70;99.90
21031;DHT22;61072;47.808;7.636;2022-12-31T03:43:50;14.70;99.90
21031;DHT22;61072;47.808;7.636;2022-12-31T03:46:17;14.70;99.90
21031;DHT22;61072;47.808;7.636;2022-12-31T03:48:43;14.80;99.90
21031;DHT22;61072;47.808;7.636;2022-12-31T03:51:10;14.70;99.90
21031;DHT22;61072;47.808;7.636;2022-12-31T03:53:37;14.70;99.90
21031;DHT22;61072;47.808;7.636;2022-12-31T03:56:04;14.80;99.90
21031;DHT22;61072;47.808;7.636;2022-12-31T03:58:30;14.80;99.90
21031;DHT22;61072;47.808;7.636;2022-12-31T04:00:57;14.80;99.90
21031;DHT22;61072;47.808;7.636;2022-12-31T04:03:24;14.80;99.90
21031;DHT22;61072;47.808;7.636;2022-12-31T04:05:53;14.80;99.90
21031;DHT22;61072;47.808;7.636;2022-12-31T04:08:19;14.90;99.90
21031;DHT22;61072;47.808;7.636;2022-12-31T04:10:46;14.90;99.90
21031;DHT22;61072;47.808;7.636;2022-12-31T04:13:13;15.00;99.90
21031;DHT22;61072;47.808;7.636;2022-12-31T04:15:39;15.00;99.90
21031;DHT22;61072;47.808;7.636;2022-12-31T04:18:06;15.00;99.90
21031;DHT22;61072;47.808;7.636;2022-12-31T04:20:33;15.00;99.90
21031;DHT22;61072;47.808;7.636;2022-12-31T04:22:59;15.00;99.90
21031;DHT22;61072;47.808;7.636;2022-12-31T04:25:26;15.00;99.90
21031;DHT22;61072;47.808;7.636;2022-12-31T04:27:53;15.00;99.90
21031;DHT22;61072;47.808;7.636;2022-12-31T04:30:20;15.00;99.90
21031;DHT22;61072;47.808;7.636;2022-12-31T04:32:46;15.00;99.90
21031;DHT22;61072;47.808;7.636;2022-12-31T04:35:13;14.90;99.90
21031;DHT22;61072;47.808;7.636;2022-12-31T04:37:40;14.90;99.90
21031;DHT22;61072;47.808;7.636;2022-12-31T04:40:07;14.90;99.90
21031;DHT22;61072;47.808;7.636;2022-12-31T04:42:34;14.90;99.90
21031;DHT22;61072;47.808;7.636;2022-12-31T04:45:01;14.90;99.90
21031;DHT22;61072;47.808;7.636;2022-12-31T04:47:28;14.90;99.90
21031;DHT22;61072;47.808;7.636;2022-12-31T04:49:55;14.80;99.90
21031;DHT22;61072;47.808;7.636;2022-12-31T04:52:22;14.80;99.90
21031;DHT22;61072;47.808;7.636;2022-12-31T04:54:49;14.70;99.90
21031;DHT22;61072;47.808;7.636;2022-12-31T04:57:16;14.70;99.90
21031;DHT22;61072;47.808;7.636;2022-12-31T04:59:42;14.70;99.90
21031;DHT22;61072;47.808;7.636;2022-12-31T05:02:09;14.60;99.90
21031;DHT22;61072;47.808;7.636;2022-12-31T05:04:36;14.60;99.90
21031;DHT22;61072;47.808;7.636;2022-12-31T05:07:03;14.60;99.90
21031;DHT22;61072;47.808;7.636;2022-12-31T05:09:30;14.60;99.90
21031;DHT22;61072;47.808;7.636;2022-12-31T05:11:56;14.60;99.90
21031;DHT22;61072;47.808;7.636;2022-12-31T05:14:23;14.50;99.90
21031;DHT22;61072;47.808;7.636;2022-12-31T05:16:50;14.50;99.90
21031;DHT22;61072;47.808;7.636;2022-12-31T05:19:17;14.50;99.90
21031;DHT22;61072;47.808;7.636;2022-12-31T05:21:44;14.60;99.90
21031;DHT22;61072;47.808;7.636;2022-12-31T05:24:31;14.60;99.90
21031;DHT22;61072;47.808;7.636;2022-12-31T05:26:57;14.60;99.90
21031;DHT22;61072;47.808;7.636;2022-12-31T05:29:24;14.60;99.90
21031;DHT22;61072;47.808;7.636;2022-12-31T05:31:51;14.60;99.90
21031;DHT22;61072;47.808;7.636;2022-12-31T05:34:18;14.70;99.90
21031;DHT22;61072;47.808;7.636;2022-12-31T05:36:44;14.70;99.90
21031;DHT22;61072;47.808;7.636;2022-12-31T05:39:11;14.70;99.90
21031;DHT22;61072;47.808;7.636;2022-12-31T05:41:38;14.70;99.90
21031;DHT22;61072;47.808;7.636;2022-12-31T05:44:04;14.80;99.90
21031;DHT22;61072;47.808;7.636;2022-12-31T05:46:31;14.80;99.90
21031;DHT22;61072;47.808;7.636;2022-12-31T05:48:58;14.80;99.90
21031;DHT22;61072;47.808;7.636;2022-12-31T05:51:24;14.80;99.90
21031;DHT22;61072;47.808;7.636;2022-12-31T05:53:51;14.70;99.90
21031;DHT22;61072;47.808;7.636;2022-12-31T05:56:18;15.40;99.90
21031;DHT22;61072;47.808;7.636;2022-12-31T05:58:46;14.70;99.90
21031;DHT22;61072;47.808;7.636;2022-12-31T06:01:12;14.70;99.90
21031;DHT22;61072;47.808;7.636;2022-12-31T06:03:40;14.70;99.90
21031;DHT22;61072;47.808;7.636;2022-12-31T06:06:07;14.70;99.90
21031;DHT22;61072;47.808;7.636;2022-12-31T06:08:33;14.70;99.90
21031;DHT22;61072;47.808;7.636;2022-12-31T06:11:00;14.80;99.90
21031;DHT22;61072;47.808;7.636;2022-12-31T06:13:27;15.50;99.90
21031;DHT22;61072;47.808;7.636;2022-12-31T06:15:54;15.30;99.90
21031;DHT22;61072;47.808;7.636;2022-12-31T06:18:21;15.70;99.90
21031;DHT22;61072;47.808;7.636;2022-12-31T06:20:48;14.90;99.90
21031;DHT22;61072;47.808;7.636;2022-12-31T06:23:15;15.70;99.90
21031;DHT22;61072;47.808;7.636;2022-12-31T06:25:42;15.00;99.90
21031;DHT22;61072;47.808;7.636;2022-12-31T06:28:08;14.90;99.90
21031;DHT22;61072;47.808;7.636;2022-12-31T06:30:45;15.20;99.90
21031;DHT22;61072;47.808;7.636;2022-12-31T06:33:12;15.10;99.90
21031;DHT22;61072;47.808;7.636;2022-12-31T06:35:38;15.00;99.90
21031;DHT22;61072;47.808;7.636;2022-12-31T06:38:05;15.00;99.90
21031;DHT22;61072;47.808;7.636;2022-12-31T06:40:32;15.00;99.90
21031;DHT22;61072;47.808;7.636;2022-12-31T06:42:58;15.00;99.90
21031;DHT22;61072;47.808;7.636;2022-12-31T06:45:26;15.00;99.90
21031;DHT22;61072;47.808;7.636;2022-12-31T06:47:53;15.60;99.90
21031;DHT22;61072;47.808;7.636;2022-12-31T06:50:20;15.00;99.90
21031;DHT22;61072;47.808;7.636;2022-12-31T06:52:46;14.90;99.90
21031;DHT22;61072;47.808;7.636;2022-12-31T06:55:14;14.90;99.90
21031;DHT22;61072;47.808;7.636;2022-12-31T06:57:41;14.90;99.90
21031;DHT22;61072;47.808;7.636;2022-12-31T07:00:09;14.90;99.90
21031;DHT22;61072;47.808;7.636;2022-12-31T07:08:11;14.90;99.90
21031;DHT22;61072;47.808;7.636;2022-12-31T07:10:52;14.90;99.90
21031;DHT22;61072;47.808;7.636;2022-12-31T07:19:39;15.00;99.90
21031;DHT22;61072;47.808;7.636;2022-12-31T07:22:13;15.00;99.90
21031;DHT22;61072;47.808;7.636;2022-12-31T07:24:42;15.00;99.90
21031;DHT22;61072;47.808;7.636;2022-12-31T07:32:21;15.10;99.90
21031;DHT22;61072;47.808;7.636;2022-12-31T07:37:53;15.20;99.90
21031;DHT22;61072;47.808;7.636;2022-12-31T07:40:41;15.20;99.90
21031;DHT22;61072;47.808;7.636;2022-12-31T07:46:27;15.40;99.90
21031;DHT22;61072;47.808;7.636;2022-12-31T07:48:57;15.40;99.90
21031;DHT22;61072;47.808;7.636;2022-12-31T07:51:24;15.40;99.90
21031;DHT22;61072;47.808;7.636;2022-12-31T07:53:51;15.50;99.90
21031;DHT22;61072;47.808;7.636;2022-12-31T07:56:18;15.50;99.90
21031;DHT22;61072;47.808;7.636;2022-12-31T08:02:01;15.60;99.90
21031;DHT22;61072;47.808;7.636;2022-12-31T08:07:44;15.80;99.90
21031;DHT22;61072;47.808;7.636;2022-12-31T08:13:12;15.90;99.90
21031;DHT22;61072;47.808;7.636;2022-12-31T08:15:39;16.00;99.90
21031;DHT22;61072;47.808;7.636;2022-12-31T08:18:07;16.00;99.90
21031;DHT22;61072;47.808;7.636;2022-12-31T08:28:52;16.30;99.90
21031;DHT22;61072;47.808;7.636;2022-12-31T08:32:11;16.30;99.90
21031;DHT22;61072;47.808;7.636;2022-12-31T08:37:41;16.30;99.90
21031;DHT22;61072;47.808;7.636;2022-12-31T08:40:23;16.30;99.90
21031;DHT22;61072;47.808;7.636;2022-12-31T08:43:19;16.40;99.90
21031;DHT22;61072;47.808;7.636;2022-12-31T08:45:52;16.40;99.90
21031;DHT22;61072;47.808;7.636;2022-12-31T08:48:28;16.40;99.90
21031;DHT22;61072;47.808;7.636;2022-12-31T08:50:56;16.50;99.90
21031;DHT22;61072;47.808;7.636;2022-12-31T08:53:23;16.50;99.90
21031;DHT22;61072;47.808;7.636;2022-12-31T08:56:00;16.50;99.90
21031;DHT22;61072;47.808;7.636;2022-12-31T09:05:03;16.40;99.90
21031;DHT22;61072;47.808;7.636;2022-12-31T09:07:37;16.50;99.90
21031;DHT22;61072;47.808;7.636;2022-12-31T09:12:40;16.50;99.90
21031;DHT22;61072;47.808;7.636;2022-12-31T09:15:24;16.50;99.90
21031;DHT22;61072;47.808;7.636;2022-12-31T09:17:52;16.60;99.90
21031;DHT22;61072;47.808;7.636;2022-12-31T09:20:28;16.60;99.90
21031;DHT22;61072;47.808;7.636;2022-12-31T09:23:08;16.60;99.90
21031;DHT22;61072;47.808;7.636;2022-12-31T09:28:46;16.60;99.90
21031;DHT22;61072;47.808;7.636;2022-12-31T09:31:26;16.60;99.90
21031;DHT22;61072;47.808;7.636;2022-12-31T09:37:08;16.70;99.90
21031;DHT22;61072;47.808;7.636;2022-12-31T09:39:42;16.60;99.90
21031;DHT22;61072;47.808;7.636;2022-12-31T09:44:50;16.70;99.90
21031;DHT22;61072;47.808;7.636;2022-12-31T09:51:01;16.70;99.90
21031;DHT22;61072;47.808;7.636;2022-12-31T09:53:28;16.70;99.90
21031;DHT22;61072;47.808;7.636;2022-12-31T09:56:07;16.70;99.90
21031;DHT22;61072;47.808;7.636;2022-12-31T09:58:57;16.80;99.90
21031;DHT22;61072;47.808;7.636;2022-12-31T10:17:36;16.90;99.90
21031;DHT22;61072;47.808;7.636;2022-12-31T10:26:06;17.10;99.90
21031;DHT22;61072;47.808;7.636;2022-12-31T10:28:48;17.10;99.90
21031;DHT22;61072;47.808;7.636;2022-12-31T10:31:35;17.10;99.90
21031;DHT22;61072;47.808;7.636;2022-12-31T10:34:14;17.10;99.90
21031;DHT22;61072;47.808;7.636;2022-12-31T10:37:05;17.20;99.90
21031;DHT22;61072;47.808;7.636;2022-12-31T10:39:55;17.10;99.90
21031;DHT22;61072;47.808;7.636;2022-12-31T10:58:05;17.30;99.90
21031;DHT22;61072;47.808;7.636;2022-12-31T11:00:52;17.20;99.90
21031;DHT22;61072;47.808;7.636;2022-12-31T11:12:09;17.30;99.90
21031;DHT22;61072;47.808;7.636;2022-12-31T11:14:57;17.30;99.90
21031;DHT22;61072;47.808;7.636;2022-12-31T11:17:58;17.30;99.90
21031;DHT22;61072;47.808;7.636;2022-12-31T11:32:05;17.40;99.90
21031;DHT22;61072;47.808;7.636;2022-12-31T11:34:54;17.40;99.90
21031;DHT22;61072;47.808;7.636;2022-12-31T11:37:50;17.50;99.90
21031;DHT22;61072;47.808;7.636;2022-12-31T11:52:11;17.50;99.90
21031;DHT22;61072;47.808;7.636;2022-12-31T11:55:42;17.50;99.90
21031;DHT22;61072;47.808;7.636;2022-12-31T11:58:09;17.50;99.90
21031;DHT22;61072;47.808;7.636;2022-12-31T12:00:37;17.50;99.90
21031;DHT22;61072;47.808;7.636;2022-12-31T12:03:05;17.60;99.90
21031;DHT22;61072;47.808;7.636;2022-12-31T12:05:34;17.60;99.90
21031;DHT22;61072;47.808;7.636;2022-12-31T12:08:01;17.60;99.90
21031;DHT22;61072;47.808;7.636;2022-12-31T12:10:31;17.60;99.90
21031;DHT22;61072;47.808;7.636;2022-12-31T12:13:18;17.70;99.90
21031;DHT22;61072;47.808;7.636;2022-12-31T12:15:51;17.60;99.90
21031;DHT22;61072;47.808;7.636;2022-12-31T12:18:39;17.70;99.90
21031;DHT22;61072;47.808;7.636;2022-12-31T12:21:15;17.70;99.90
21031;DHT22;61072;47.808;7.636;2022-12-31T12:29:15;17.70;99.90
21031;DHT22;61072;47.808;7.636;2022-12-31T12:31:54;17.70;99.90
21031;DHT22;61072;47.808;7.636;2022-12-31T12:34:28;17.80;99.90
21031;DHT22;61072;47.808;7.636;2022-12-31T12:36:55;17.80;99.90
21031;DHT22;61072;47.808;7.636;2022-12-31T12:39:25;17.70;99.90
21031;DHT22;61072;47.808;7.636;2022-12-31T12:42:03;17.70;99.90
21031;DHT22;61072;47.808;7.636;2022-12-31T12:44:30;17.80;99.90
21031;DHT22;61072;47.808;7.636;2022-12-31T12:46:58;17.80;99.90
21031;DHT22;61072;47.808;7.636;2022-12-31T12:49:45;17.70;99.90
21031;DHT22;61072;47.808;7.636;2022-12-31T12:52:34;17.70;99.90
21031;DHT22;61072;47.808;7.636;2022-12-31T12:58:08;17.70;99.90
21031;DHT22;61072;47.808;7.636;2022-12-31T13:21:00;17.60;99.90
21031;DHT22;61072;47.808;7.636;2022-12-31T13:23:42;17.60;99.90
21031;DHT22;61072;47.808;7.636;2022-12-31T13:28:45;17.50;99.90
21031;DHT22;61072;47.808;7.636;2022-12-31T13:31:18;17.50;99.90
21031;DHT22;61072;47.808;7.636;2022-12-31T13:33:51;17.40;99.90
21031;DHT22;61072;47.808;7.636;2022-12-31T13:36:21;17.50;99.90
21031;DHT22;61072;47.808;7.636;2022-12-31T13:38:54;17.50;99.90
21031;DHT22;61072;47.808;7.636;2022-12-31T13:41:40;17.40;99.90
21031;DHT22;61072;47.808;7.636;2022-12-31T13:44:12;17.40;99.90
21031;DHT22;61072;47.808;7.636;2022-12-31T13:49:51;17.40;99.90
21031;DHT22;61072;47.808;7.636;2022-12-31T13:52:43;17.40;99.90
21031;DHT22;61072;47.808;7.636;2022-12-31T13:55:27;17.30;99.90
21031;DHT22;61072;47.808;7.636;2022-12-31T14:00:51;17.30;99.90
21031;DHT22;61072;47.808;7.636;2022-12-31T14:06:00;17.20;99.90
21031;DHT22;61072;47.808;7.636;2022-12-31T14:08:28;17.20;99.90
21031;DHT22;61072;47.808;7.636;2022-12-31T14:20:00;17.00;99.90
21031;DHT22;61072;47.808;7.636;2022-12-31T14:25:03;16.90;99.90
21031;DHT22;61072;47.808;7.636;2022-12-31T14:27:37;16.80;99.90
21031;DHT22;61072;47.808;7.636;2022-12-31T14:30:18;16.80;99.90
21031;DHT22;61072;47.808;7.636;2022-12-31T14:35:35;16.70;99.90
21031;DHT22;61072;47.808;7.636;2022-12-31T14:38:23;16.60;99.90
21031;DHT22;61072;47.808;7.636;2022-12-31T14:44:28;16.50;99.90
21031;DHT22;61072;47.808;7.636;2022-12-31T14:47:20;16.40;99.90
21031;DHT22;61072;47.808;7.636;2022-12-31T14:50:02;16.40;99.90
21031;DHT22;61072;47.808;7.636;2022-12-31T14:55:24;16.30;99.90
21031;DHT22;61072;47.808;7.636;2022-12-31T14:57:52;16.30;99.90
21031;DHT22;61072;47.808;7.636;2022-12-31T15:00:54;16.20;99.90
21031;DHT22;61072;47.808;7.636;2022-12-31T15:03:25;16.20;99.90
21031;DHT22;61072;47.808;7.636;2022-12-31T15:06:25;16.10;99.90
21031;DHT22;61072;47.808;7.636;2022-12-31T15:09:03;16.10;99.90
21031;DHT22;61072;47.808;7.636;2022-12-31T15:12:16;16.00;99.90
21031;DHT22;61072;47.808;7.636;2022-12-31T15:15:01;15.90;99.90
21031;DHT22;61072;47.808;7.636;2022-12-31T15:22:51;15.70;99.90
21031;DHT22;61072;47.808;7.636;2022-12-31T15:25:33;15.70;99.90
21031;DHT22;61072;47.808;7.636;2022-12-31T15:28:28;15.60;99.90
21031;DHT22;61072;47.808;7.636;2022-12-31T15:31:02;15.60;99.90
21031;DHT22;61072;47.808;7.636;2022-12-31T15:33:34;15.50;99.90
21031;DHT22;61072;47.808;7.636;2022-12-31T15:38:39;15.50;99.90
21031;DHT22;61072;47.808;7.636;2022-12-31T15:43:49;15.30;99.90
21031;DHT22;61072;47.808;7.636;2022-12-31T15:46:23;15.30;99.90
21031;DHT22;61072;47.808;7.636;2022-12-31T15:48:54;15.20;99.90
21031;DHT22;61072;47.808;7.636;2022-12-31T15:51:53;15.20;99.90
21031;DHT22;61072;47.808;7.636;2022-12-31T15:54:42;15.10;99.90
21031;DHT22;61072;47.808;7.636;2022-12-31T15:57:19;15.10;99.90
21031;DHT22;61072;47.808;7.636;2022-12-31T15:59:46;15.10;99.90
21031;DHT22;61072;47.808;7.636;2022-12-31T16:02:23;15.00;99.90
21031;DHT22;61072;47.808;7.636;2022-12-31T16:04:51;15.00;99.90
21031;DHT22;61072;47.808;7.636;2022-12-31T16:07:21;15.00;99.90
21031;DHT22;61072;47.808;7.636;2022-12-31T16:09:52;15.00;99.90
21031;DHT22;61072;47.808;7.636;2022-12-31T16:12:23;14.90;99.90
21031;DHT22;61072;47.808;7.636;2022-12-31T16:14:58;15.00;99.90
21031;DHT22;61072;47.808;7.636;2022-12-31T16:19:56;14.90;99.90
21031;DHT22;61072;47.808;7.636;2022-12-31T16:24:55;14.80;99.90
21031;DHT22;61072;47.808;7.636;2022-12-31T16:27:42;14.90;99.90
21031;DHT22;61072;47.808;7.636;2022-12-31T16:30:29;14.90;99.90
21031;DHT22;61072;47.808;7.636;2022-12-31T16:33:04;15.00;99.90
21031;DHT22;61072;47.808;7.636;2022-12-31T16:35:35;15.00;99.90
21031;DHT22;61072;47.808;7.636;2022-12-31T16:38:09;15.00;99.90
21031;DHT22;61072;47.808;7.636;2022-12-31T16:40:37;15.10;99.90
21031;DHT22;61072;47.808;7.636;2022-12-31T16:43:21;15.20;99.90
21031;DHT22;61072;47.808;7.636;2022-12-31T16:45:49;15.20;99.90
21031;DHT22;61072;47.808;7.636;2022-12-31T16:48:18;15.30;99.90
21031;DHT22;61072;47.808;7.636;2022-12-31T16:50:55;15.30;99.90
21031;DHT22;61072;47.808;7.636;2022-12-31T16:53:25;15.30;99.90
21031;DHT22;61072;47.808;7.636;2022-12-31T16:55:56;15.30;99.90
21031;DHT22;61072;47.808;7.636;2022-12-31T16:58:29;15.40;99.90
21031;DHT22;61072;47.808;7.636;2022-12-31T17:01:19;15.40;99.90
21031;DHT22;61072;47.808;7.636;2022-12-31T17:03:54;15.30;99.90
21031;DHT22;61072;47.808;7.636;2022-12-31T17:06:23;15.40;99.90
21031;DHT22;61072;47.808;7.636;2022-12-31T17:11:34;15.40;99.90
21031;DHT22;61072;47.808;7.636;2022-12-31T17:14:12;15.30;99.90
21031;DHT22;61072;47.808;7.636;2022-12-31T17:16:56;15.30;99.90
21031;DHT22;61072;47.808;7.636;2022-12-31T17:19:40;15.30;99.90
21031;DHT22;61072;47.808;7.636;2022-12-31T17:22:26;15.30;99.90
21031;DHT22;61072;47.808;7.636;2022-12-31T17:25:19;15.30;99.90
21031;DHT22;61072;47.808;7.636;2022-12-31T17:33:03;15.40;99.90
21031;DHT22;61072;47.808;7.636;2022-12-31T17:35:42;15.40;99.90
21031;DHT22;61072;47.808;7.636;2022-12-31T17:43:36;15.70;99.90
21031;DHT22;61072;47.808;7.636;2022-12-31T17:46:16;15.70;99.90
21031;DHT22;61072;47.808;7.636;2022-12-31T17:48:43;15.80;99.90
21031;DHT22;61072;47.808;7.636;2022-12-31T17:51:11;15.80;99.90
21031;DHT22;61072;47.808;7.636;2022-12-31T17:53:38;15.80;99.90
21031;DHT22;61072;47.808;7.636;2022-12-31T17:56:06;15.80;99.90
21031;DHT22;61072;47.808;7.636;2022-12-31T17:58:45;15.80;99.90
21031;DHT22;61072;47.808;7.636;2022-12-31T18:01:14;15.90;99.90
21031;DHT22;61072;47.808;7.636;2022-12-31T18:03:42;15.90;99.90
21031;DHT22;61072;47.808;7.636;2022-12-31T18:06:10;15.90;99.90
21031;DHT22;61072;47.808;7.636;2022-12-31T18:08:42;16.00;99.90
21031;DHT22;61072;47.808;7.636;2022-12-31T18:11:15;16.00;99.90
21031;DHT22;61072;47.808;7.636;2022-12-31T18:13:42;16.10;99.90
21031;DHT22;61072;47.808;7.636;2022-12-31T18:16:09;16.00;99.90
21031;DHT22;61072;47.808;7.636;2022-12-31T18:18:35;16.10;99.90
21031;DHT22;61072;47.808;7.636;2022-12-31T18:21:29;16.10;99.90
21031;DHT22;61072;47.808;7.636;2022-12-31T18:23:54;16.00;99.90
21031;DHT22;61072;47.808;7.636;2022-12-31T18:26:21;16.10;99.90
21031;DHT22;61072;47.808;7.636;2022-12-31T18:28:48;16.00;99.90
21031;DHT22;61072;47.808;7.636;2022-12-31T18:31:20;16.00;99.90
21031;DHT22;61072;47.808;7.636;2022-12-31T18:33:49;15.90;99.90
21031;DHT22;61072;47.808;7.636;2022-12-31T18:36:17;15.90;99.90
21031;DHT22;61072;47.808;7.636;2022-12-31T18:38:45;15.90;99.90
21031;DHT22;61072;47.808;7.636;2022-12-31T18:41:19;15.80;99.90
21031;DHT22;61072;47.808;7.636;2022-12-31T18:43:47;15.80;99.90
21031;DHT22;61072;47.808;7.636;2022-12-31T18:46:16;15.80;99.90
21031;DHT22;61072;47.808;7.636;2022-12-31T18:48:43;15.70;99.90
21031;DHT22;61072;47.808;7.636;2022-12-31T18:51:15;15.70;99.90
21031;DHT22;61072;47.808;7.636;2022-12-31T18:53:43;15.60;99.90
21031;DHT22;61072;47.808;7.636;2022-12-31T18:56:11;15.60;99.90
21031;DHT22;61072;47.808;7.636;2022-12-31T18:58:39;15.50;99.90
21031;DHT22;61072;47.808;7.636;2022-12-31T19:03:47;15.40;99.90
21031;DHT22;61072;47.808;7.636;2022-12-31T19:06:13;15.30;99.90
21031;DHT22;61072;47.808;7.636;2022-12-31T19:08:40;15.30;99.90
21031;DHT22;61072;47.808;7.636;2022-12-31T19:11:10;15.30;99.90
21031;DHT22;61072;47.808;7.636;2022-12-31T19:13:38;15.20;99.90
21031;DHT22;61072;47.808;7.636;2022-12-31T19:16:07;15.10;99.90
21031;DHT22;61072;47.808;7.636;2022-12-31T19:18:34;15.00;99.90
21031;DHT22;61072;47.808;7.636;2022-12-31T19:21:02;14.90;99.90
21031;DHT22;61072;47.808;7.636;2022-12-31T19:23:29;14.80;99.90
21031;DHT22;61072;47.808;7.636;2022-12-31T19:25:55;14.80;99.90
21031;DHT22;61072;47.808;7.636;2022-12-31T19:28:24;14.80;99.90
21031;DHT22;61072;47.808;7.636;2022-12-31T19:30:52;14.70;99.90
21031;DHT22;61072;47.808;7.636;2022-12-31T19:33:19;14.70;99.90
21031;DHT22;61072;47.808;7.636;2022-12-31T19:35:45;14.60;99.90
21031;DHT22;61072;47.808;7.636;2022-12-31T19:38:21;14.50;99.90
21031;DHT22;61072;47.808;7.636;2022-12-31T19:40:50;14.50;99.90
21031;DHT22;61072;47.808;7.636;2022-12-31T19:43:19;14.50;99.90
21031;DHT22;61072;47.808;7.636;2022-12-31T19:45:46;14.50;99.90
21031;DHT22;61072;47.808;7.636;2022-12-31T19:48:18;14.40;99.90
21031;DHT22;61072;47.808;7.636;2022-12-31T19:50:48;14.40;99.90
21031;DHT22;61072;47.808;7.636;2022-12-31T19:53:18;14.30;99.90
21031;DHT22;61072;47.808;7.636;2022-12-31T19:55:45;14.20;99.90
21031;DHT22;61072;47.808;7.636;2022-12-31T19:58:18;14.20;99.90
21031;DHT22;61072;47.808;7.636;2022-12-31T20:00:46;14.20;99.90
21031;DHT22;61072;47.808;7.636;2022-12-31T20:03:22;14.20;99.90
21031;DHT22;61072;47.808;7.636;2022-12-31T20:05:49;14.10;99.90
21031;DHT22;61072;47.808;7.636;2022-12-31T20:08:16;14.10;99.90